Time;durP1;ratioP1;P1;durP2;ratioP2;P2;SDS_P1;SDS_P2;PMS_P1;PMS_P2;Temp;Humidity;BMP_temperature;BMP_pressure;BME280_temperature;BME280_humidity;BME280_pressure;Samples;Min_cycle;Max_cycle;Signal;HPM_P1;HPM_P2
2021/05/01 00:00:05;;;;;;;41.60;18.67;;;7.80;99.90;;;;;;5084934;28;20040;-81
2021/05/01 00:02:31;;;;;;;38.60;17.98;;;7.80;99.90;;;;;;5090594;28;20071;-81
2021/05/01 00:04:58;;;;;;;49.35;19.30;;;7.80;99.90;;;;;;5109171;28;20047;-82
2021/05/01 00:07:24;;;;;;;44.85;17.95;;;7.70;99.90;;;;;;5090810;28;20106;-81
2021/05/01 00:09:50;;;;;;;39.33;19.38;;;7.80;99.90;;;;;;5085124;28;20521;-80
2021/05/01 00:12:17;;;;;;;40.72;19.23;;;7.70;99.90;;;;;;5095609;28;20051;-80
2021/05/01 00:14:43;;;;;;;38.30;18.30;;;7.70;99.90;;;;;;5095027;28;20086;-81
2021/05/01 00:17:11;;;;;;;53.50;19.05;;;7.70;99.90;;;;;;5094302;28;20135;-81
2021/05/01 00:19:38;;;;;;;42.08;17.77;;;7.70;99.90;;;;;;5093172;28;20056;-80
2021/05/01 00:22:07;;;;;;;50.45;18.40;;;7.70;99.90;;;;;;5096344;28;20052;-81
2021/05/01 00:24:33;;;;;;;42.70;18.13;;;7.60;99.90;;;;;;5079621;28;20135;-81
2021/05/01 00:26:59;;;;;;;36.72;18.70;;;7.60;99.90;;;;;;5090573;28;20104;-81
2021/05/01 00:29:26;;;;;;;44.22;18.52;;;7.60;99.90;;;;;;5090419;28;20078;-81
2021/05/01 00:31:52;;;;;;;36.40;17.75;;;7.60;99.90;;;;;;5093004;28;20056;-81
2021/05/01 00:34:21;;;;;;;42.05;18.15;;;7.60;99.90;;;;;;5097397;28;20588;-80
2021/05/01 00:36:47;;;;;;;44.40;19.13;;;7.60;99.90;;;;;;5093906;28;20634;-81
2021/05/01 00:39:14;;;;;;;37.25;17.40;;;7.60;99.90;;;;;;5094898;28;20044;-80
2021/05/01 00:41:40;;;;;;;40.30;18.55;;;7.60;99.90;;;;;;5108492;27;20048;-81
2021/05/01 00:44:08;;;;;;;44.28;18.15;;;7.60;99.90;;;;;;5094186;28;20127;-81
2021/05/01 00:46:34;;;;;;;32.28;18.65;;;7.60;99.90;;;;;;5108686;27;20036;-80
2021/05/01 00:49:02;;;;;;;36.08;16.27;;;7.70;99.90;;;;;;5109881;28;20059;-81
2021/05/01 00:51:28;;;;;;;45.25;18.33;;;7.70;99.90;;;;;;5097828;28;20108;-80
2021/05/01 00:53:55;;;;;;;41.83;17.50;;;7.80;99.90;;;;;;5099465;28;20066;-81
2021/05/01 00:56:22;;;;;;;43.90;17.58;;;7.80;99.90;;;;;;5082663;28;20140;-81
2021/05/01 00:58:49;;;;;;;38.60;17.42;;;7.90;99.90;;;;;;5075458;28;20046;-81
2021/05/01 01:01:18;;;;;;;38.40;16.17;;;7.90;99.90;;;;;;5072504;28;20195;-81
2021/05/01 01:03:46;;;;;;;36.70;15.02;;;7.90;99.90;;;;;;5074177;28;20044;-81
2021/05/01 01:06:14;;;;;;;44.35;15.77;;;7.90;99.90;;;;;;5084055;28;20083;-81
2021/05/01 01:08:41;;;;;;;31.40;15.10;;;7.90;99.90;;;;;;5084969;28;20048;-81
2021/05/01 01:11:09;;;;;;;30.55;14.15;;;7.90;99.90;;;;;;5082569;28;20055;-81
2021/05/01 01:13:38;;;;;;;26.70;13.85;;;7.90;99.90;;;;;;5080230;28;20052;-81
2021/05/01 01:16:05;;;;;;;29.65;15.10;;;7.90;99.90;;;;;;5081414;28;20078;-80
2021/05/01 01:18:33;;;;;;;30.90;13.85;;;7.90;99.90;;;;;;5080083;28;20051;-81
2021/05/01 01:21:03;;;;;;;26.10;12.88;;;7.90;99.90;;;;;;5089568;28;20052;-80
2021/05/01 01:23:30;;;;;;;33.05;14.45;;;7.90;99.90;;;;;;5081686;28;20058;-81
2021/05/01 01:25:56;;;;;;;24.90;12.40;;;7.90;99.90;;;;;;5078271;28;20131;-81
2021/05/01 01:28:23;;;;;;;24.98;12.38;;;7.90;99.90;;;;;;5084044;28;20048;-81
2021/05/01 01:30:50;;;;;;;32.33;13.75;;;7.90;99.90;;;;;;5085461;28;20056;-81
2021/05/01 01:33:16;;;;;;;28.35;13.38;;;7.90;99.90;;;;;;5081637;28;20052;-81
2021/05/01 01:35:42;;;;;;;25.35;12.10;;;7.90;99.90;;;;;;5090076;28;20048;-81
2021/05/01 01:38:09;;;;;;;24.67;12.63;;;8.00;99.90;;;;;;5083740;28;20474;-81
2021/05/01 01:40:37;;;;;;;32.08;12.65;;;7.90;99.90;;;;;;5073408;28;20048;-81
2021/05/01 01:43:04;;;;;;;30.40;13.18;;;7.90;99.90;;;;;;5061705;28;20124;-81
2021/05/01 01:45:31;;;;;;;28.27;12.10;;;7.90;99.90;;;;;;5067161;28;20047;-81
2021/05/01 01:47:58;;;;;;;23.00;11.90;;;7.90;99.90;;;;;;5064529;28;20052;-81
2021/05/01 01:50:26;;;;;;;21.13;10.57;;;7.90;99.90;;;;;;5074176;28;20048;-81
2021/05/01 01:52:52;;;;;;;29.60;12.07;;;7.90;99.90;;;;;;5102136;28;20142;-81
2021/05/01 01:55:21;;;;;;;24.60;11.00;;;7.90;99.90;;;;;;5083446;28;20052;-81
2021/05/01 01:57:48;;;;;;;21.33;10.20;;;7.90;99.90;;;;;;5084065;28;20127;-81
2021/05/01 02:00:18;;;;;;;23.23;9.88;;;7.90;99.90;;;;;;5082169;28;20062;-80
2021/05/01 02:02:45;;;;;;;21.45;9.68;;;7.90;99.90;;;;;;5086275;28;20047;-81
2021/05/01 02:05:13;;;;;;;26.40;9.65;;;7.90;99.90;;;;;;5086738;28;20079;-81
2021/05/01 02:07:39;;;;;;;23.85;9.93;;;7.90;99.90;;;;;;5084299;28;20072;-81
2021/05/01 02:10:08;;;;;;;19.33;9.70;;;7.90;99.90;;;;;;5080470;28;20139;-81
2021/05/01 02:12:38;;;;;;;21.15;9.95;;;7.90;99.90;;;;;;5084436;28;20043;-81
2021/05/01 02:15:10;;;;;;;17.27;9.48;;;7.90;99.90;;;;;;5081525;28;20068;-80
2021/05/01 02:17:39;;;;;;;21.67;9.70;;;7.90;99.90;;;;;;5081534;28;20123;-81
2021/05/01 02:20:07;;;;;;;21.45;9.73;;;7.90;99.90;;;;;;5064757;28;20056;-81
2021/05/01 02:22:34;;;;;;;22.08;10.82;;;7.90;99.90;;;;;;5062783;28;20131;-81
2021/05/01 02:25:01;;;;;;;25.52;10.30;;;7.90;99.90;;;;;;5067938;28;20071;-81
2021/05/01 02:27:27;;;;;;;22.58;10.75;;;7.90;99.90;;;;;;5062826;28;24580;-81
2021/05/01 02:29:53;;;;;;;19.65;10.05;;;7.80;99.90;;;;;;5055481;28;20075;-81
2021/05/01 02:32:19;;;;;;;23.70;10.55;;;7.90;99.90;;;;;;5064192;28;20113;-81
2021/05/01 02:34:45;;;;;;;19.75;10.23;;;7.90;99.90;;;;;;5064318;28;20563;-81
2021/05/01 02:37:12;;;;;;;22.33;11.43;;;7.90;99.90;;;;;;5061335;28;20125;-81
2021/05/01 02:39:39;;;;;;;25.38;11.00;;;7.80;99.90;;;;;;5079912;28;20517;-81
2021/05/01 02:42:06;;;;;;;19.23;11.48;;;7.80;99.90;;;;;;5076163;28;20493;-81
2021/05/01 02:44:33;;;;;;;25.67;11.38;;;7.80;99.90;;;;;;5068133;28;20055;-81
2021/05/01 02:46:59;;;;;;;27.60;10.07;;;7.80;99.90;;;;;;5062016;28;20062;-81
2021/05/01 02:49:26;;;;;;;24.60;11.43;;;7.80;99.90;;;;;;5064788;28;20055;-81
2021/05/01 02:51:52;;;;;;;29.17;11.05;;;7.70;99.90;;;;;;5063053;28;20091;-81
2021/05/01 02:54:18;;;;;;;21.95;11.32;;;7.70;99.90;;;;;;5082884;28;20055;-80
2021/05/01 02:56:47;;;;;;;23.70;11.80;;;7.70;99.90;;;;;;5077967;28;20053;-81
2021/05/01 02:59:13;;;;;;;20.92;11.52;;;7.70;99.90;;;;;;5064581;28;20111;-80
2021/05/01 03:01:39;;;;;;;23.17;11.07;;;7.60;99.90;;;;;;5063545;28;20518;-81
2021/05/01 03:04:05;;;;;;;26.48;11.77;;;7.60;99.90;;;;;;5065217;28;21065;-80
2021/05/01 03:06:32;;;;;;;23.20;11.73;;;7.60;99.90;;;;;;5062093;28;20049;-81
2021/05/01 03:08:59;;;;;;;25.90;11.25;;;7.60;99.90;;;;;;5062641;28;20459;-81
2021/05/01 03:11:25;;;;;;;17.95;10.98;;;7.50;99.90;;;;;;5064222;28;20044;-81
2021/05/01 03:13:51;;;;;;;26.25;11.25;;;7.50;99.90;;;;;;5062858;28;20050;-81
2021/05/01 03:16:18;;;;;;;23.77;10.85;;;7.50;99.90;;;;;;5069930;28;20053;-80
2021/05/01 03:18:44;;;;;;;18.63;10.27;;;7.40;99.90;;;;;;5065894;28;20048;-81
2021/05/01 03:21:10;;;;;;;20.85;10.88;;;7.40;99.90;;;;;;5069979;28;20064;-80
2021/05/01 03:23:37;;;;;;;27.30;10.85;;;7.40;99.90;;;;;;5069360;28;20155;-81
2021/05/01 03:26:03;;;;;;;31.85;10.73;;;7.30;99.90;;;;;;5069507;28;20053;-82
2021/05/01 03:28:29;;;;;;;23.25;11.05;;;7.30;99.90;;;;;;5072050;28;20143;-80
2021/05/01 03:30:56;;;;;;;27.98;11.05;;;7.20;99.90;;;;;;5068735;28;20036;-82
2021/05/01 03:33:22;;;;;;;26.08;10.38;;;7.10;99.90;;;;;;5074015;28;20040;-81
2021/05/01 03:35:48;;;;;;;32.40;11.23;;;7.10;99.90;;;;;;5083495;28;20045;-81
2021/05/01 03:38:15;;;;;;;33.38;12.95;;;7.00;99.90;;;;;;5066330;28;20052;-81
2021/05/01 03:40:41;;;;;;;27.35;11.25;;;7.00;99.90;;;;;;5070083;28;20139;-81
2021/05/01 03:43:09;;;;;;;29.83;12.07;;;6.90;99.90;;;;;;5068374;28;20132;-82
2021/05/01 03:45:36;;;;;;;27.55;11.60;;;6.90;99.90;;;;;;5068543;28;20051;-81
2021/05/01 03:48:04;;;;;;;25.25;11.60;;;6.80;99.90;;;;;;5066735;28;20053;-81
2021/05/01 03:50:30;;;;;;;31.08;13.45;;;6.80;99.90;;;;;;5068776;28;20551;-81
2021/05/01 03:52:57;;;;;;;25.75;12.02;;;6.70;99.90;;;;;;5068563;28;20055;-81
2021/05/01 03:55:23;;;;;;;27.33;12.60;;;6.70;99.90;;;;;;5076908;28;20078;-81
2021/05/01 03:57:51;;;;;;;22.45;12.82;;;6.60;99.90;;;;;;5087933;28;20499;-81
2021/05/01 04:00:19;;;;;;;28.65;12.75;;;6.60;99.90;;;;;;5107459;27;20054;-81
2021/05/01 04:02:45;;;;;;;34.42;13.07;;;6.60;99.90;;;;;;5087332;28;20572;-81
2021/05/01 04:05:17;;;;;;;25.95;13.07;;;6.60;99.90;;;;;;5086455;28;20046;-81
2021/05/01 04:07:44;;;;;;;28.40;12.32;;;6.60;99.90;;;;;;5086045;28;20108;-81
2021/05/01 04:10:11;;;;;;;25.70;12.75;;;6.60;99.90;;;;;;5082606;28;20043;-81
2021/05/01 04:12:37;;;;;;;23.95;12.70;;;6.50;99.90;;;;;;5089806;28;20072;-81
2021/05/01 04:15:04;;;;;;;32.22;13.57;;;6.50;99.90;;;;;;5081449;28;20113;-81
2021/05/01 04:17:31;;;;;;;24.73;12.52;;;6.50;99.90;;;;;;5080658;28;20114;-80
2021/05/01 04:19:57;;;;;;;29.60;12.55;;;6.50;99.90;;;;;;5080205;28;20080;-81
2021/05/01 04:22:24;;;;;;;24.65;11.40;;;6.50;99.90;;;;;;5085454;28;20108;-81
2021/05/01 04:24:50;;;;;;;33.83;13.10;;;6.40;99.90;;;;;;5086213;28;20044;-81
2021/05/01 04:27:18;;;;;;;21.35;13.45;;;6.40;99.90;;;;;;5082349;28;20044;-81
2021/05/01 04:29:44;;;;;;;22.45;12.93;;;6.40;99.90;;;;;;5085906;28;20052;-81
2021/05/01 04:32:10;;;;;;;24.70;12.75;;;6.40;99.90;;;;;;5082915;28;20058;-81
2021/05/01 04:34:37;;;;;;;32.63;12.30;;;6.40;99.90;;;;;;5085485;28;20057;-81
2021/05/01 04:37:03;;;;;;;23.27;12.00;;;6.30;99.90;;;;;;5083861;28;20143;-81
2021/05/01 04:39:30;;;;;;;29.23;13.20;;;6.30;99.90;;;;;;5087959;28;20028;-81
2021/05/01 04:41:56;;;;;;;29.08;13.70;;;6.30;99.90;;;;;;5088747;28;20051;-82
2021/05/01 04:44:23;;;;;;;25.33;12.27;;;6.30;99.90;;;;;;5085923;28;20052;-81
2021/05/01 04:46:53;;;;;;;27.23;13.10;;;6.30;99.90;;;;;;5076358;28;20684;-81
2021/05/01 04:49:20;;;;;;;28.27;13.77;;;6.30;99.90;;;;;;5067434;28;20048;-81
2021/05/01 04:51:47;;;;;;;20.50;11.68;;;6.40;99.90;;;;;;5069546;28;21042;-81
2021/05/01 04:54:13;;;;;;;26.05;12.77;;;6.30;99.90;;;;;;5065640;28;20071;-81
2021/05/01 04:56:40;;;;;;;23.20;11.85;;;6.30;99.90;;;;;;5067235;28;20977;-81
2021/05/01 04:59:06;;;;;;;24.27;12.63;;;6.30;99.90;;;;;;5063263;28;20144;-81
2021/05/01 05:01:36;;;;;;;28.50;12.75;;;6.30;99.90;;;;;;5061329;28;20055;-81
2021/05/01 05:04:03;;;;;;;26.50;12.68;;;6.30;99.90;;;;;;5064396;28;20601;-81
2021/05/01 05:06:29;;;;;;;26.77;12.68;;;6.30;99.90;;;;;;5064995;28;20122;-81
2021/05/01 05:08:56;;;;;;;26.33;12.63;;;6.40;99.90;;;;;;5067447;28;20067;-81
2021/05/01 05:11:23;;;;;;;22.15;12.73;;;6.40;99.90;;;;;;5068864;28;20151;-80
2021/05/01 05:13:49;;;;;;;26.33;12.60;;;6.40;99.90;;;;;;5063444;28;20407;-81
2021/05/01 05:16:16;;;;;;;25.63;11.95;;;6.50;99.90;;;;;;5064833;28;20048;-82
2021/05/01 05:18:42;;;;;;;23.30;12.25;;;6.50;99.90;;;;;;5066369;28;20091;-82
2021/05/01 05:21:08;;;;;;;19.02;12.05;;;6.50;99.90;;;;;;5068817;28;20056;-81
2021/05/01 05:23:34;;;;;;;25.20;11.82;;;6.50;99.90;;;;;;5079993;28;20078;-81
2021/05/01 05:26:00;;;;;;;24.45;12.38;;;6.50;99.90;;;;;;5087179;28;20052;-81
2021/05/01 05:28:27;;;;;;;22.40;11.23;;;6.60;99.90;;;;;;5085843;28;20047;-82
2021/05/01 05:30:53;;;;;;;21.55;11.98;;;6.60;99.90;;;;;;5089525;28;20108;-81
2021/05/01 05:33:19;;;;;;;24.20;12.20;;;6.60;99.90;;;;;;5085113;28;20443;-81
2021/05/01 05:35:45;;;;;;;26.83;12.30;;;6.60;99.90;;;;;;5085132;28;20067;-81
2021/05/01 05:38:12;;;;;;;21.55;12.18;;;6.70;99.90;;;;;;5085657;28;20068;-81
2021/05/01 05:40:41;;;;;;;20.35;12.50;;;6.70;99.90;;;;;;5088104;28;20559;-81
2021/05/01 05:43:08;;;;;;;26.38;11.45;;;6.80;99.90;;;;;;5089793;28;20043;-81
2021/05/01 05:45:35;;;;;;;25.75;11.88;;;6.80;99.90;;;;;;5105219;28;20124;-82
2021/05/01 05:48:03;;;;;;;25.23;11.85;;;6.90;99.90;;;;;;5084338;28;20147;-81
2021/05/01 05:50:30;;;;;;;22.50;11.57;;;6.90;99.90;;;;;;5085596;28;20054;-81
2021/05/01 05:52:56;;;;;;;21.67;10.70;;;7.20;99.90;;;;;;5104278;28;20499;-81
2021/05/01 05:55:23;;;;;;;17.02;11.55;;;7.50;99.90;;;;;;5083143;28;20051;-81
2021/05/01 05:57:53;;;;;;;19.02;10.75;;;7.70;99.90;;;;;;5064780;28;20045;-81
2021/05/01 06:00:22;;;;;;;25.30;11.45;;;7.90;99.90;;;;;;5060994;28;20551;-81
2021/05/01 06:02:50;;;;;;;22.13;11.95;;;8.00;99.90;;;;;;5065325;28;20048;-81
2021/05/01 06:05:48;;;;;;;16.85;11.38;;;8.00;99.90;;;;;;5063843;28;20454;-81
2021/05/01 06:08:16;;;;;;;21.50;11.07;;;8.00;99.90;;;;;;5058400;28;20063;-81
2021/05/01 06:10:44;;;;;;;20.00;11.07;;;8.00;99.90;;;;;;5067315;28;20135;-81
2021/05/01 06:13:12;;;;;;;18.85;10.50;;;7.90;99.90;;;;;;5051822;28;20493;-81
2021/05/01 06:15:40;;;;;;;16.38;10.23;;;8.00;99.90;;;;;;5076123;28;20403;-81
2021/05/01 06:18:07;;;;;;;18.20;10.57;;;8.10;99.90;;;;;;5065742;28;20052;-80
2021/05/01 06:20:38;;;;;;;17.75;11.00;;;8.20;99.90;;;;;;5080348;28;20052;-80
2021/05/01 06:23:04;;;;;;;15.55;10.10;;;8.20;99.90;;;;;;5068232;28;20048;-81
2021/05/01 06:25:30;;;;;;;14.82;9.27;;;8.30;99.90;;;;;;5065030;28;20044;-80
2021/05/01 06:27:57;;;;;;;18.33;9.93;;;8.50;99.90;;;;;;5071202;28;20064;-82
2021/05/01 06:30:24;;;;;;;15.73;10.52;;;8.70;99.90;;;;;;5083890;28;20044;-81
2021/05/01 06:32:51;;;;;;;16.10;9.63;;;8.80;99.90;;;;;;5086166;28;20488;-81
2021/05/01 06:35:18;;;;;;;16.65;9.55;;;9.00;99.90;;;;;;5087268;28;20109;-81
2021/05/01 06:37:46;;;;;;;15.43;8.63;;;9.20;99.90;;;;;;5083856;28;20488;-81
2021/05/01 06:40:15;;;;;;;14.93;9.98;;;9.30;99.90;;;;;;5084211;28;20052;-81
2021/05/01 06:42:59;;;;;;;13.52;8.60;;;9.50;99.90;;;;;;5079430;28;20044;-81
2021/05/01 06:45:27;;;;;;;13.88;8.35;;;9.80;99.90;;;;;;5078630;28;20071;-81
2021/05/01 06:47:56;;;;;;;11.80;8.32;;;10.10;99.90;;;;;;5073826;28;20157;-81
2021/05/01 06:50:26;;;;;;;14.40;8.15;;;10.20;99.90;;;;;;5079827;28;20059;-81
2021/05/01 06:52:53;;;;;;;11.45;6.95;;;10.10;99.90;;;;;;5083953;28;20062;-81
2021/05/01 06:55:21;;;;;;;10.05;7.13;;;9.90;99.90;;;;;;5084078;28;20068;-81
2021/05/01 06:57:49;;;;;;;9.60;6.43;;;9.60;99.90;;;;;;5086027;28;20058;-81
2021/05/01 07:00:18;;;;;;;8.73;6.07;;;9.40;99.90;;;;;;5094444;28;20484;-81
2021/05/01 07:02:46;;;;;;;10.73;7.13;;;9.40;99.90;;;;;;5064512;28;20051;-81
2021/05/01 07:05:18;;;;;;;12.95;7.03;;;9.60;99.90;;;;;;5060788;28;20044;-82
2021/05/01 07:07:45;;;;;;;9.25;6.78;;;9.90;99.90;;;;;;5061092;28;20629;-81
2021/05/01 07:10:15;;;;;;;7.65;6.05;;;10.10;99.90;;;;;;5064984;28;20055;-81
2021/05/01 07:12:42;;;;;;;8.40;5.75;;;10.30;99.90;;;;;;5066603;28;20108;-81
2021/05/01 07:15:15;;;;;;;11.25;6.53;;;10.50;99.90;;;;;;5062302;28;20131;-81
2021/05/01 07:17:43;;;;;;;10.17;5.77;;;10.60;99.90;;;;;;5060485;28;20064;-81
2021/05/01 07:20:12;;;;;;;8.82;5.32;;;10.70;99.90;;;;;;5065436;28;20374;-81
2021/05/01 07:22:38;;;;;;;10.73;5.50;;;11.00;99.90;;;;;;5075010;28;20075;-81
2021/05/01 07:25:07;;;;;;;9.68;5.63;;;11.00;99.90;;;;;;5094386;28;20048;-81
2021/05/01 07:27:52;;;;;;;8.00;5.53;;;11.00;99.90;;;;;;5086234;28;20052;-81
2021/05/01 07:30:21;;;;;;;8.82;5.35;;;11.00;99.90;;;;;;5088863;28;20071;-81
2021/05/01 07:32:51;;;;;;;7.82;5.88;;;11.00;99.90;;;;;;5086144;28;20497;-81
2021/05/01 07:35:19;;;;;;;6.07;4.53;;;11.10;99.90;;;;;;5087454;28;20500;-81
2021/05/01 07:37:50;;;;;;;12.40;4.78;;;11.10;99.90;;;;;;5074116;28;20483;-81
2021/05/01 07:40:23;;;;;;;6.00;4.68;;;11.10;99.90;;;;;;5099173;28;20052;-81
2021/05/01 07:42:51;;;;;;;6.00;4.47;;;11.10;99.90;;;;;;5082146;28;20492;-81
2021/05/01 07:45:24;;;;;;;10.38;5.82;;;11.00;99.90;;;;;;5104849;28;20082;-85
2021/05/01 07:47:53;;;;;;;11.80;5.93;;;11.10;99.90;;;;;;5092542;28;20070;-84
2021/05/01 07:50:25;;;;;;;7.78;4.97;;;11.20;99.90;;;;;;5070784;28;20048;-83
2021/05/01 07:52:55;;;;;;;6.78;4.97;;;11.50;99.90;;;;;;5067748;28;20068;-82
2021/05/01 07:55:22;;;;;;;7.28;4.70;;;11.70;99.90;;;;;;5066285;28;20079;-82
2021/05/01 07:57:50;;;;;;;6.57;4.88;;;11.80;99.90;;;;;;5090798;27;20044;-80
2021/05/01 08:00:18;;;;;;;13.30;5.82;;;11.80;99.90;;;;;;5062285;28;20055;-81
2021/05/01 08:02:46;;;;;;;9.52;5.00;;;11.80;99.90;;;;;;5075225;28;20059;-81
2021/05/01 08:05:14;;;;;;;11.23;5.40;;;11.80;99.90;;;;;;5089808;28;20048;-81
2021/05/01 08:07:40;;;;;;;10.23;5.40;;;11.70;99.90;;;;;;5081894;28;20048;-81
2021/05/01 08:10:08;;;;;;;5.43;4.07;;;11.60;99.90;;;;;;5096009;28;20109;-81
2021/05/01 08:12:35;;;;;;;10.98;5.00;;;11.40;99.90;;;;;;5077831;28;20513;-79
2021/05/01 08:15:03;;;;;;;6.93;4.90;;;11.20;99.90;;;;;;5074163;28;20052;-79
2021/05/01 08:17:30;;;;;;;13.43;5.10;;;11.00;99.90;;;;;;5065202;28;20105;-77
2021/05/01 08:19:57;;;;;;;6.32;4.60;;;10.90;99.90;;;;;;5079584;28;20532;-78
2021/05/01 08:22:23;;;;;;;7.55;5.22;;;10.80;99.90;;;;;;5088527;27;20070;-79
2021/05/01 08:24:49;;;;;;;6.07;4.95;;;10.80;99.90;;;;;;5089147;28;25125;-80
2021/05/01 08:27:16;;;;;;;7.43;5.13;;;10.80;99.90;;;;;;5084292;28;20126;-79
2021/05/01 08:29:42;;;;;;;7.35;4.68;;;10.90;99.90;;;;;;5088935;28;20131;-78
2021/05/01 08:32:08;;;;;;;8.88;4.60;;;11.10;99.90;;;;;;5070253;28;20052;-79
2021/05/01 08:34:35;;;;;;;6.07;4.65;;;11.40;99.90;;;;;;5090528;28;20052;-79
2021/05/01 08:37:02;;;;;;;5.20;4.57;;;11.80;99.90;;;;;;5090189;28;20225;-80
2021/05/01 08:39:29;;;;;;;6.72;4.13;;;12.10;99.90;;;;;;5081216;28;20109;-80
2021/05/01 08:41:56;;;;;;;7.60;4.90;;;12.50;99.90;;;;;;5088528;28;20540;-81
2021/05/01 08:44:22;;;;;;;10.35;5.45;;;12.70;99.90;;;;;;5086179;28;20126;-80
2021/05/01 08:46:48;;;;;;;10.10;5.90;;;12.70;99.90;;;;;;5088377;27;20047;-80
2021/05/01 08:49:15;;;;;;;7.68;5.03;;;12.80;99.90;;;;;;5084807;28;20059;-80
2021/05/01 08:51:43;;;;;;;7.25;4.53;;;13.00;99.90;;;;;;5088599;28;20078;-80
2021/05/01 08:54:13;;;;;;;5.63;5.03;;;12.90;99.90;;;;;;5088320;28;20153;-81
2021/05/01 08:56:44;;;;;;;5.75;4.85;;;12.80;99.90;;;;;;5088094;28;20131;-80
2021/05/01 08:59:11;;;;;;;7.03;4.82;;;12.70;99.90;;;;;;5088879;28;20540;-80
2021/05/01 09:01:39;;;;;;;7.47;4.93;;;12.90;99.90;;;;;;5084343;28;20139;-79
2021/05/01 09:04:08;;;;;;;7.85;4.95;;;13.10;99.90;;;;;;5082056;28;20082;-80
2021/05/01 09:06:36;;;;;;;6.80;4.45;;;13.50;99.90;;;;;;5080604;28;20044;-80
2021/05/01 09:09:05;;;;;;;4.70;4.15;;;13.90;99.90;;;;;;5089323;28;20067;-81
2021/05/01 09:11:43;;;;;;;8.35;5.20;;;14.00;99.90;;;;;;5070311;28;20048;-82
2021/05/01 09:14:18;;;;;;;9.10;4.85;;;14.00;99.90;;;;;;5071523;28;20071;-82
2021/05/01 09:16:57;;;;;;;8.32;4.47;;;13.70;99.90;;;;;;5085827;28;20088;-81
2021/05/01 09:19:40;;;;;;;6.75;4.70;;;13.20;99.90;;;;;;5107665;28;20044;-81
2021/05/01 09:22:11;;;;;;;8.13;4.10;;;12.70;99.90;;;;;;5113970;28;20120;-82
2021/05/01 09:24:39;;;;;;;8.00;4.65;;;12.40;99.90;;;;;;5090253;28;20376;-83
2021/05/01 09:27:07;;;;;;;7.68;4.30;;;12.40;99.90;;;;;;5078370;28;21190;-82
2021/05/01 09:29:36;;;;;;;8.85;4.10;;;12.60;99.90;;;;;;5071061;28;20063;-82
2021/05/01 09:32:05;;;;;;;6.65;4.10;;;12.70;99.90;;;;;;5089849;28;20056;-81
2021/05/01 09:34:46;;;;;;;5.85;4.10;;;12.80;99.90;;;;;;5089324;28;20139;-83
2021/05/01 09:37:13;;;;;;;7.70;4.55;;;12.80;99.90;;;;;;5080497;28;20047;-81
2021/05/01 09:39:47;;;;;;;7.20;3.95;;;13.00;99.90;;;;;;5093777;28;20075;-81
2021/05/01 09:42:16;;;;;;;5.63;3.72;;;13.10;99.90;;;;;;5106709;28;20089;-80
2021/05/01 09:44:44;;;;;;;5.38;3.80;;;13.30;99.90;;;;;;5086502;28;20075;-81
2021/05/01 09:47:16;;;;;;;4.95;3.50;;;13.30;99.90;;;;;;5086555;28;20048;-81
2021/05/01 09:49:46;;;;;;;5.50;3.35;;;13.40;99.90;;;;;;5080203;28;20043;-81
2021/05/01 09:52:15;;;;;;;6.80;3.63;;;13.60;99.90;;;;;;5082214;28;20055;-80
2021/05/01 09:54:46;;;;;;;4.25;3.35;;;13.80;99.90;;;;;;5085528;28;20056;-80
2021/05/01 09:57:20;;;;;;;15.93;3.58;;;14.10;99.90;;;;;;5085328;28;20514;-80
2021/05/01 09:59:52;;;;;;;5.72;2.63;;;14.10;99.40;;;;;;5084074;28;20047;-81
2021/05/01 10:02:31;;;;;;;3.63;2.88;;;13.70;98.40;;;;;;5081741;28;20113;-80
2021/05/01 10:05:03;;;;;;;8.48;3.30;;;13.50;99.90;;;;;;5081868;28;20051;-80
2021/05/01 10:07:31;;;;;;;5.45;3.15;;;13.50;99.90;;;;;;5089093;28;20055;-80
2021/05/01 10:09:58;;;;;;;7.85;3.95;;;13.60;99.90;;;;;;5086226;28;20089;-80
2021/05/01 10:12:38;;;;;;;7.05;3.95;;;13.80;96.80;;;;;;5086663;28;20103;-80
2021/05/01 10:15:24;;;;;;;3.83;3.25;;;14.00;99.30;;;;;;5084753;28;20052;-80
2021/05/01 10:18:11;;;;;;;6.20;4.05;;;14.10;98.10;;;;;;5087960;28;20097;-81
2021/05/01 10:20:43;;;;;;;5.68;3.83;;;14.30;99.50;;;;;;5085095;28;20052;-81
2021/05/01 10:23:09;;;;;;;5.03;4.03;;;14.60;96.70;;;;;;5085635;28;20059;-81
2021/05/01 10:25:36;;;;;;;6.75;4.13;;;14.40;94.40;;;;;;5092404;28;20107;-82
2021/05/01 10:28:14;;;;;;;4.85;3.60;;;14.20;94.90;;;;;;5084140;28;20051;-81
2021/05/01 10:30:49;;;;;;;6.10;3.97;;;13.90;95.60;;;;;;5087248;28;20056;-81
2021/05/01 10:33:20;;;;;;;5.38;4.22;;;14.00;98.00;;;;;;5088666;28;20058;-81
2021/05/01 10:36:08;;;;;;;5.72;4.18;;;14.10;94.90;;;;;;5078441;28;20048;-82
2021/05/01 10:38:35;;;;;;;5.43;3.90;;;14.10;97.80;;;;;;5104054;27;20040;-81
2021/05/01 10:41:05;;;;;;;4.05;3.63;;;14.30;94.20;;;;;;5082552;28;20173;-80
2021/05/01 10:43:39;;;;;;;6.50;4.03;;;14.50;96.50;;;;;;5103705;28;20113;-80
2021/05/01 10:46:06;;;;;;;;;;;14.70;94.10;;;;;;5085460;28;20087;-79
2021/05/01 10:48:47;;;;;;;6.50;4.22;;;14.80;94.60;;;;;;5083929;28;20027;-80
2021/05/01 10:51:22;;;;;;;6.15;4.43;;;15.00;93.90;;;;;;5102891;28;20036;-80
2021/05/01 10:54:05;;;;;;;6.18;4.25;;;15.10;92.60;;;;;;5070909;28;20048;-81
2021/05/01 10:56:32;;;;;;;5.38;4.88;;;15.00;92.00;;;;;;5087282;28;20126;-80
2021/05/01 10:59:07;;;;;;;6.47;4.50;;;14.90;93.80;;;;;;5083180;28;20160;-80
2021/05/01 11:01:37;;;;;;;5.50;4.88;;;15.00;94.50;;;;;;5075493;28;20098;-80
2021/05/01 11:04:07;;;;;;;7.55;5.22;;;15.30;94.50;;;;;;5073904;28;20052;-79
2021/05/01 11:06:40;;;;;;;4.88;4.38;;;15.60;91.60;;;;;;5086457;28;20051;-80
2021/05/01 11:09:09;;;;;;;6.05;4.35;;;15.90;95.00;;;;;;5092720;28;20070;-78
2021/05/01 11:11:42;;;;;;;6.55;4.57;;;16.40;91.40;;;;;;5101550;28;20120;-82
2021/05/01 11:14:14;;;;;;;7.47;4.63;;;16.70;84.90;;;;;;5087512;28;20044;-84
2021/05/01 11:16:52;;;;;;;7.55;4.72;;;16.50;85.20;;;;;;5089043;28;20100;-82
2021/05/01 11:19:22;;;;;;;7.10;4.20;;;16.40;89.70;;;;;;5090762;28;20047;-84
2021/05/01 11:21:49;;;;;;;5.47;4.38;;;16.40;91.60;;;;;;5069025;28;20080;-80
2021/05/01 11:24:15;;;;;;;7.13;4.82;;;16.40;85.30;;;;;;5081814;28;20050;-81
2021/05/01 11:26:44;;;;;;;4.68;4.10;;;16.30;89.70;;;;;;5086554;28;20150;-80
2021/05/01 11:29:11;;;;;;;4.97;3.67;;;16.40;89.40;;;;;;5086907;28;20524;-80
2021/05/01 11:31:40;;;;;;;5.85;4.18;;;16.50;86.10;;;;;;5080076;27;20139;-80
2021/05/01 11:34:11;;;;;;;5.07;3.90;;;16.80;85.00;;;;;;5082611;28;20045;-80
2021/05/01 11:36:45;;;;;;;5.32;3.47;;;17.00;78.90;;;;;;5073154;28;20062;-80
2021/05/01 11:39:14;;;;;;;4.50;3.85;;;17.10;81.20;;;;;;5087443;28;20131;-80
2021/05/01 11:41:43;;;;;;;5.40;3.40;;;17.20;81.00;;;;;;5081523;28;20043;-79
2021/05/01 11:44:15;;;;;;;7.75;3.83;;;17.50;79.30;;;;;;5088093;28;20067;-81
2021/05/01 11:46:48;;;;;;;6.68;4.25;;;17.90;82.50;;;;;;5092196;28;20084;-81
2021/05/01 11:49:16;;;;;;;;;;;18.40;77.40;;;;;;5090049;28;20419;-79
2021/05/01 11:52:01;;;;;;;4.05;3.58;;;18.80;75.00;;;;;;5078640;28;19930;-79
2021/05/01 11:54:56;;;;;;;6.90;4.38;;;18.90;70.90;;;;;;5080885;28;20054;-79
2021/05/01 11:57:44;;;;;;;4.70;3.90;;;18.50;67.40;;;;;;5047480;28;20048;-79
2021/05/01 12:00:12;;;;;;;8.70;4.38;;;18.00;71.70;;;;;;5087356;28;20074;-79
2021/05/01 12:02:44;;;;;;;7.22;3.95;;;17.60;71.80;;;;;;5087761;28;20075;-79
2021/05/01 12:05:32;;;;;;;5.63;3.78;;;17.20;72.50;;;;;;5068471;28;20131;-79
2021/05/01 12:08:20;;;;;;;6.72;4.05;;;16.80;74.50;;;;;;5085859;28;20052;-79
2021/05/01 12:10:49;;;;;;;4.22;3.35;;;16.70;74.80;;;;;;5087522;28;20046;-80
2021/05/01 12:13:35;;;;;;;4.35;3.95;;;16.50;76.00;;;;;;5078911;28;20079;-80
2021/05/01 12:16:20;;;;;;;4.53;3.88;;;16.30;77.20;;;;;;5094306;28;20111;-80
2021/05/01 12:18:50;;;;;;;4.55;3.70;;;16.40;77.60;;;;;;5069821;28;20066;-81
2021/05/01 12:21:22;;;;;;;4.75;3.22;;;16.40;77.20;;;;;;5075692;28;20589;-80
2021/05/01 12:23:50;;;;;;;5.78;3.45;;;16.50;78.30;;;;;;5079046;28;20124;-80
2021/05/01 12:26:38;;;;;;;4.03;3.45;;;16.60;77.70;;;;;;5071412;28;20071;-80
2021/05/01 12:29:20;;;;;;;4.72;3.10;;;16.60;78.70;;;;;;5083784;28;20131;-81
2021/05/01 12:31:52;;;;;;;3.88;2.85;;;16.50;80.00;;;;;;5087919;28;20091;-82
2021/05/01 12:34:22;;;;;;;3.60;3.30;;;16.50;78.10;;;;;;5084887;28;20066;-82
2021/05/01 12:36:51;;;;;;;2.70;2.50;;;16.70;79.20;;;;;;5077246;28;20169;-80
2021/05/01 12:39:19;;;;;;;2.50;2.30;;;17.10;77.70;;;;;;5083075;28;20048;-80
2021/05/01 12:41:49;;;;;;;3.83;2.60;;;17.50;72.50;;;;;;5067406;28;20064;-80
2021/05/01 12:44:40;;;;;;;3.08;2.13;;;17.40;73.70;;;;;;5069288;28;20087;-80
2021/05/01 12:47:07;;;;;;;2.58;2.38;;;17.50;74.30;;;;;;5070078;28;20054;-80
2021/05/01 12:49:35;;;;;;;3.65;2.55;;;17.40;71.20;;;;;;5067646;28;20063;-79
2021/05/01 12:52:06;;;;;;;3.67;2.83;;;17.20;69.80;;;;;;5068495;28;20487;-80